NY06 weather

Gaines Valley Aviation Airport
Albion, New York, United States

Public forecast

Using degrees Fahrenheit for public forecast. Weather courtesy of forecast.io.

Closest aviation weather report (METAR) to Gaines Valley Aviation Airport

Closest report is Greater Rochester International Airport, 26.0 nm (48.1 km) ESE. Retrieved 2020/07/16 12:54 UTC (11 minutes ago):

KROC 161254Z 20009KT 10SM FEW130 SCT180 BKN230 26/19 A3008 RMK AO2 SLP186 T02560189

Closest aviation forecast (TAF) to Gaines Valley Aviation Airport

Closest forecast is Greater Rochester International Airport, 26.0 nm (48.1 km) ESE. Retrieved 2020/07/16 12:22 UTC (43 minutes ago):

TAF KROC 161120Z 1612/1712 18012G21KT P6SM BKN200 FM161400 18014G20KT P6SM BKN100 FM161700 18012G22KT P6SM SHRA VCTS BKN040CB FM170000 17013G22KT P6SM VCTS OVC035CB FM170400 19013G21KT P6SM BKN030 FM170700 22011G19KT P6SM BKN020 FM171100 27008KT P6SM BKN007